Time;durP1;ratioP1;P1;durP2;ratioP2;P2;SDS_P1;SDS_P2;PMS_P1;PMS_P2;Temp;Humidity;BMP_temperature;BMP_pressure;BME280_temperature;BME280_humidity;BME280_pressure;Samples;Min_cycle;Max_cycle;Signal;HPM_P1;HPM_P2
2023/07/05 00:00:47;;;;;;;7.20;1.70;;;14.10;99.90;;;;;;4216927;28;20037;-85
2023/07/05 00:02:54;;;;;;;8.95;2.00;;;15.20;99.90;;;;;;4217996;28;20047;-85
2023/07/05 00:04:55;;;;;;;5.63;1.77;;;15.10;99.90;;;;;;4219429;28;20097;-85
2023/07/05 00:06:56;;;;;;;5.85;2.30;;;15.10;99.90;;;;;;4228456;28;20067;-85
2023/07/05 00:08:57;;;;;;;5.43;2.17;;;15.00;99.90;;;;;;4229563;28;20037;-85
2023/07/05 00:11:03;;;;;;;7.03;1.70;;;15.00;99.90;;;;;;4244234;28;20052;-85
2023/07/05 00:13:04;;;;;;;3.80;1.95;;;15.00;99.90;;;;;;4230618;28;20088;-85
2023/07/05 00:15:05;;;;;;;8.18;2.05;;;15.00;99.90;;;;;;4226978;28;20040;-85
2023/07/05 00:17:07;;;;;;;6.20;2.92;;;15.10;99.90;;;;;;4227756;28;20048;-85
2023/07/05 00:19:09;;;;;;;6.45;2.67;;;15.00;99.90;;;;;;4226843;28;20044;-85
2023/07/05 00:21:10;;;;;;;8.35;2.35;;;15.00;99.90;;;;;;4228739;28;20487;-85
2023/07/05 00:23:12;;;;;;;7.90;2.45;;;15.10;99.90;;;;;;4227759;28;20082;-85
2023/07/05 00:25:13;;;;;;;8.60;2.75;;;15.00;99.90;;;;;;4226088;28;20040;-84
2023/07/05 00:27:14;;;;;;;5.03;2.25;;;15.00;99.90;;;;;;4228173;28;20044;-84
2023/07/05 00:29:15;;;;;;;7.43;2.25;;;16.10;99.90;;;;;;4224730;28;20036;-85
2023/07/05 00:31:16;;;;;;;9.43;2.28;;;15.00;99.90;;;;;;4230948;28;20089;-85
2023/07/05 00:33:17;;;;;;;6.28;2.38;;;15.00;99.90;;;;;;4217591;28;20077;-84
2023/07/05 00:35:18;;;;;;;11.40;3.22;;;14.90;99.90;;;;;;4216252;28;20101;-85
2023/07/05 00:37:18;;;;;;;8.77;2.67;;;14.90;99.90;;;;;;4200999;28;20037;-85
2023/07/05 00:39:20;;;;;;;5.60;2.40;;;14.90;99.90;;;;;;4201014;28;20059;-85
2023/07/05 00:41:20;;;;;;;9.35;2.90;;;14.90;99.90;;;;;;4201303;28;20052;-84
2023/07/05 00:43:21;;;;;;;6.18;2.72;;;14.90;99.90;;;;;;4206955;28;20132;-85
2023/07/05 00:45:41;;;;;;;8.77;3.83;;;14.90;99.90;;;;;;4218420;28;20047;-83
2023/07/05 00:47:42;;;;;;;8.32;3.08;;;14.80;99.90;;;;;;4200215;28;20048;-84
2023/07/05 00:49:43;;;;;;;6.55;2.75;;;14.80;99.90;;;;;;4216911;28;20093;-84
2023/07/05 00:51:50;;;;;;;10.10;4.00;;;14.80;99.90;;;;;;4218817;28;20055;-84
2023/07/05 00:53:54;;;;;;;5.90;2.58;;;14.90;99.90;;;;;;4199206;28;20074;-84
2023/07/05 00:56:09;;;;;;;20.52;4.82;;;14.80;99.90;;;;;;4217697;28;20052;-84
2023/07/05 00:58:11;;;;;;;7.32;2.90;;;14.90;99.90;;;;;;4217964;28;20064;-84
2023/07/05 01:00:16;;;;;;;8.88;3.15;;;15.80;99.90;;;;;;4216735;28;20048;-84
2023/07/05 01:02:17;;;;;;;10.32;3.33;;;14.90;99.90;;;;;;4216462;28;20040;-85
2023/07/05 01:04:19;;;;;;;9.65;3.70;;;14.80;99.90;;;;;;4214660;28;20052;-84
2023/07/05 01:06:22;;;;;;;8.60;3.20;;;14.90;99.90;;;;;;4215721;28;20504;-85
2023/07/05 01:08:23;;;;;;;10.13;4.43;;;14.80;99.90;;;;;;4216721;28;20119;-84
2023/07/05 01:10:25;;;;;;;9.00;3.10;;;14.70;99.90;;;;;;4216185;28;20048;-84
2023/07/05 01:12:38;;;;;;;10.05;3.70;;;14.80;99.90;;;;;;4217380;28;20044;-86
2023/07/05 01:14:49;;;;;;;6.25;3.33;;;14.80;99.90;;;;;;4216888;28;20462;-86
2023/07/05 01:17:16;;;;;;;11.82;3.55;;;14.90;99.90;;;;;;4232769;28;20051;-86
2023/07/05 01:19:38;;;;;;;6.72;3.33;;;14.80;99.90;;;;;;4216538;28;20531;-86
2023/07/05 01:21:43;;;;;;;11.15;3.97;;;14.80;99.90;;;;;;4233175;28;20473;-86
2023/07/05 01:24:02;;;;;;;10.40;3.53;;;14.80;99.90;;;;;;4217337;28;20043;-86
2023/07/05 01:26:21;;;;;;;13.07;3.92;;;14.80;99.90;;;;;;4217048;28;20067;-85
2023/07/05 01:29:20;;;;;;;10.45;4.00;;;14.90;99.90;;;;;;4223180;28;20515;-85
2023/07/05 01:31:57;;;;;;;9.55;3.42;;;14.90;99.90;;;;;;4165720;28;20103;-86
2023/07/05 01:34:18;;;;;;;10.02;4.78;;;14.90;99.90;;;;;;4186161;28;20046;-86
2023/07/05 01:36:19;;;;;;;7.50;4.10;;;14.80;99.90;;;;;;4198102;28;20061;-86
2023/07/05 01:38:22;;;;;;;9.07;4.22;;;14.80;99.90;;;;;;4215153;28;20540;-85
2023/07/05 01:40:25;;;;;;;11.90;4.40;;;14.80;99.90;;;;;;4199395;28;20476;-86
2023/07/05 01:42:31;;;;;;;13.02;5.30;;;14.90;99.90;;;;;;4199764;28;20505;-86
2023/07/05 01:44:34;;;;;;;13.80;4.25;;;14.80;99.90;;;;;;4199393;28;20052;-86
2023/07/05 01:46:47;;;;;;;15.70;5.20;;;14.80;99.90;;;;;;4215305;28;20488;-86
2023/07/05 01:49:11;;;;;;;9.20;4.63;;;14.90;99.90;;;;;;4199627;28;20028;-85
2023/07/05 01:51:16;;;;;;;12.77;4.53;;;14.80;99.90;;;;;;4216748;28;20051;-85
2023/07/05 01:53:31;;;;;;;12.65;4.80;;;14.80;99.90;;;;;;4198138;28;20056;-85
2023/07/05 01:55:41;;;;;;;12.80;5.03;;;14.80;99.90;;;;;;4216601;28;20150;-86
2023/07/05 01:57:54;;;;;;;13.20;4.90;;;14.80;99.90;;;;;;4216568;28;20039;-85
2023/07/05 02:00:05;;;;;;;14.18;4.72;;;14.80;99.90;;;;;;4215060;28;20496;-85
2023/07/05 02:02:09;;;;;;;7.97;4.50;;;14.70;99.90;;;;;;4215848;28;20043;-85
2023/07/05 02:04:12;;;;;;;12.43;4.85;;;14.70;99.90;;;;;;4216476;28;20112;-85
2023/07/05 02:06:14;;;;;;;8.95;4.75;;;14.70;99.90;;;;;;4215185;28;20044;-84
2023/07/05 02:08:17;;;;;;;12.57;5.45;;;14.70;99.90;;;;;;4216543;28;20114;-86
2023/07/05 02:10:25;;;;;;;10.93;4.50;;;14.80;99.90;;;;;;4215157;28;20080;-85
2023/07/05 02:12:26;;;;;;;10.90;4.85;;;14.70;99.90;;;;;;4230936;28;20484;-84
2023/07/05 02:14:27;;;;;;;10.48;5.40;;;14.70;99.90;;;;;;4216207;28;20088;-84
2023/07/05 02:16:28;;;;;;;10.88;4.68;;;14.70;99.90;;;;;;4215603;28;20044;-84
2023/07/05 02:18:29;;;;;;;12.73;4.63;;;14.70;99.90;;;;;;4216389;28;20047;-84
2023/07/05 02:20:30;;;;;;;12.52;5.25;;;14.70;99.90;;;;;;4215719;28;20113;-84
2023/07/05 02:22:31;;;;;;;10.43;4.72;;;14.70;99.90;;;;;;4214682;28;20448;-84
2023/07/05 02:24:36;;;;;;;12.85;4.70;;;14.70;99.90;;;;;;4215749;28;20055;-85
2023/07/05 02:26:37;;;;;;;8.13;5.13;;;14.60;99.90;;;;;;4232166;28;20054;-85
2023/07/05 02:28:37;;;;;;;13.35;4.72;;;14.60;99.90;;;;;;4214774;28;20040;-85
2023/07/05 02:30:40;;;;;;;13.82;5.15;;;14.60;99.90;;;;;;4214022;28;20062;-86
2023/07/05 02:32:41;;;;;;;10.30;4.68;;;13.90;99.90;;;;;;4217120;28;20027;-86
2023/07/05 02:34:43;;;;;;;12.93;5.50;;;14.60;99.90;;;;;;4198065;28;20048;-85
2023/07/05 02:36:44;;;;;;;11.82;4.57;;;14.60;99.90;;;;;;4198809;28;20057;-85
2023/07/05 02:38:45;;;;;;;9.93;4.63;;;14.60;99.90;;;;;;4231526;27;20054;-85
2023/07/05 02:40:49;;;;;;;12.82;5.53;;;15.20;99.90;;;;;;4216310;28;20044;-85
2023/07/05 02:42:50;;;;;;;13.45;5.57;;;14.60;99.90;;;;;;4216555;28;20044;-85
2023/07/05 02:44:51;;;;;;;13.10;5.40;;;14.50;99.90;;;;;;4230983;28;20048;-84
2023/07/05 02:46:52;;;;;;;16.77;5.40;;;14.50;99.90;;;;;;4214952;28;20043;-84
2023/07/05 02:48:55;;;;;;;11.23;5.40;;;14.50;99.90;;;;;;4214535;28;20518;-83
2023/07/05 02:50:56;;;;;;;16.52;5.57;;;14.50;99.90;;;;;;4232555;28;20082;-85
2023/07/05 02:53:00;;;;;;;13.45;5.93;;;14.50;99.90;;;;;;4215301;28;20415;-84
2023/07/05 02:55:01;;;;;;;15.48;5.93;;;14.50;99.90;;;;;;4198068;28;20040;-85
2023/07/05 02:57:03;;;;;;;11.30;5.15;;;14.80;99.90;;;;;;4197725;28;20048;-85
2023/07/05 02:59:04;;;;;;;12.50;5.88;;;14.50;99.90;;;;;;4198021;28;20045;-85
2023/07/05 03:01:06;;;;;;;11.32;6.22;;;14.40;99.90;;;;;;4198848;28;20040;-85
2023/07/05 03:03:06;;;;;;;13.70;6.70;;;14.40;99.90;;;;;;4196530;28;20044;-85
2023/07/05 03:05:11;;;;;;;13.15;6.10;;;14.40;99.90;;;;;;4199003;28;20048;-85
2023/07/05 03:07:12;;;;;;;13.48;6.38;;;14.40;99.90;;;;;;4199420;28;20051;-85
2023/07/05 03:09:13;;;;;;;15.13;6.10;;;14.40;99.90;;;;;;4206362;28;20040;-84
2023/07/05 03:11:14;;;;;;;11.50;6.03;;;14.40;99.90;;;;;;4215885;28;20493;-84
2023/07/05 03:13:14;;;;;;;14.23;5.60;;;14.40;99.90;;;;;;4214646;28;20039;-85
2023/07/05 03:15:15;;;;;;;12.05;6.32;;;14.40;99.90;;;;;;4215826;28;20051;-84
2023/07/05 03:17:16;;;;;;;11.10;5.90;;;14.30;99.90;;;;;;4211193;28;20081;-85
2023/07/05 03:19:17;;;;;;;9.27;6.18;;;14.40;99.90;;;;;;4214967;28;20036;-86
2023/07/05 03:21:24;;;;;;;15.50;6.25;;;14.30;99.90;;;;;;4215428;28;20506;-85
2023/07/05 03:23:25;;;;;;;14.27;5.75;;;14.40;99.90;;;;;;4208983;28;20044;-85
2023/07/05 03:25:26;;;;;;;11.10;6.13;;;14.40;99.90;;;;;;4207594;28;20032;-84
2023/07/05 03:27:28;;;;;;;16.08;6.05;;;14.30;99.90;;;;;;4230741;28;20044;-84
2023/07/05 03:29:29;;;;;;;15.10;6.55;;;14.40;99.90;;;;;;4215083;28;20051;-84
2023/07/05 03:31:31;;;;;;;17.67;6.65;;;14.10;99.90;;;;;;4214961;28;20123;-85
2023/07/05 03:33:33;;;;;;;17.05;6.35;;;14.40;99.90;;;;;;4216268;28;20096;-85
2023/07/05 03:35:34;;;;;;;16.08;6.88;;;14.40;99.90;;;;;;4208367;28;20477;-85
2023/07/05 03:37:35;;;;;;;9.88;5.35;;;14.30;99.90;;;;;;4200277;28;20079;-84
2023/07/05 03:39:35;;;;;;;13.75;6.43;;;14.30;99.90;;;;;;4200729;28;20049;-83
2023/07/05 03:41:36;;;;;;;15.50;6.65;;;14.30;99.90;;;;;;4215608;28;20036;-83
2023/07/05 03:43:38;;;;;;;14.82;6.22;;;14.30;99.90;;;;;;4218246;28;20047;-83
2023/07/05 03:45:38;;;;;;;12.43;6.88;;;14.30;99.90;;;;;;4232843;28;20039;-84
2023/07/05 03:47:39;;;;;;;14.45;7.43;;;14.40;99.90;;;;;;4219029;28;20428;-84
2023/07/05 03:49:40;;;;;;;15.13;6.97;;;14.30;99.90;;;;;;4217617;28;20040;-83
2023/07/05 03:51:41;;;;;;;10.70;6.50;;;14.40;99.90;;;;;;4218203;28;20119;-84
2023/07/05 03:53:41;;;;;;;11.80;6.30;;;14.40;99.90;;;;;;4216645;28;20406;-83
2023/07/05 03:55:42;;;;;;;17.17;6.55;;;14.40;99.90;;;;;;4216904;28;20521;-83
2023/07/05 03:57:43;;;;;;;14.07;6.88;;;14.40;99.90;;;;;;4218323;28;20184;-83
2023/07/05 03:59:46;;;;;;;15.15;6.80;;;14.50;99.90;;;;;;4217361;28;20036;-83
2023/07/05 04:01:47;;;;;;;15.63;6.95;;;14.40;99.90;;;;;;4218761;28;20036;-83
2023/07/05 04:03:54;;;;;;;19.30;7.75;;;14.50;99.90;;;;;;4216003;28;20524;-84
2023/07/05 04:05:54;;;;;;;10.20;6.68;;;14.40;99.90;;;;;;4218499;28;20066;-84
2023/07/05 04:07:55;;;;;;;12.18;6.60;;;14.40;99.90;;;;;;4217834;28;20127;-84
2023/07/05 04:09:58;;;;;;;12.57;7.40;;;14.40;99.90;;;;;;4217356;28;20455;-93
2023/07/05 04:11:58;;;;;;;12.57;6.47;;;14.40;99.90;;;;;;4211710;28;20040;-86
2023/07/05 04:13:59;;;;;;;14.70;7.90;;;14.50;99.90;;;;;;4204443;28;20043;-86
2023/07/05 04:16:06;;;;;;;17.35;8.25;;;14.40;99.90;;;;;;4213507;28;20077;-86
2023/07/05 04:18:08;;;;;;;12.73;7.20;;;14.50;99.90;;;;;;4212486;28;20040;-86
2023/07/05 04:20:09;;;;;;;14.43;6.93;;;14.40;99.90;;;;;;4218063;28;20475;-86
2023/07/05 04:22:10;;;;;;;11.88;5.72;;;14.50;99.90;;;;;;4218041;28;20044;-86
2023/07/05 04:24:12;;;;;;;11.07;5.40;;;14.60;99.90;;;;;;4235358;28;20047;-84
2023/07/05 04:26:16;;;;;;;11.75;6.15;;;14.60;99.90;;;;;;4218156;28;20052;-85
2023/07/05 04:28:18;;;;;;;10.98;5.70;;;14.60;99.90;;;;;;4218693;28;20381;-85
2023/07/05 04:30:18;;;;;;;9.80;5.93;;;14.60;99.90;;;;;;4229515;28;20043;-85
2023/07/05 04:32:19;;;;;;;10.45;5.60;;;14.70;99.90;;;;;;4216099;28;20052;-86
2023/07/05 04:34:22;;;;;;;11.82;6.15;;;14.70;99.90;;;;;;4218926;28;20051;-87
2023/07/05 04:36:25;;;;;;;13.07;5.63;;;14.70;99.90;;;;;;4218366;28;20040;-87
2023/07/05 04:38:26;;;;;;;13.52;5.78;;;14.80;99.90;;;;;;4214885;28;20040;-86
2023/07/05 04:40:27;;;;;;;10.40;5.38;;;14.80;99.90;;;;;;4217359;28;20042;-91
2023/07/05 04:42:29;;;;;;;9.52;5.75;;;14.80;99.90;;;;;;4221688;28;20044;-87
2023/07/05 04:44:30;;;;;;;10.95;5.22;;;15.70;99.90;;;;;;4224641;28;20048;-88
2023/07/05 04:46:38;;;;;;;11.23;5.30;;;14.90;99.90;;;;;;4225587;28;20040;-87
2023/07/05 04:48:48;;;;;;;11.95;5.43;;;14.90;99.90;;;;;;4225223;28;20044;-89
2023/07/05 04:50:52;;;;;;;8.63;5.07;;;15.40;99.90;;;;;;4224323;28;20094;-88
2023/07/05 04:52:55;;;;;;;11.98;5.35;;;15.00;99.90;;;;;;4218917;28;20044;-88
2023/07/05 04:54:55;;;;;;;8.48;4.57;;;15.00;99.90;;;;;;4220710;28;20040;-89
2023/07/05 04:56:56;;;;;;;10.85;5.57;;;15.00;99.90;;;;;;4218567;28;20396;-88
2023/07/05 04:58:57;;;;;;;10.50;5.03;;;15.10;99.90;;;;;;4219042;28;20043;-89
2023/07/05 05:01:05;;;;;;;11.43;4.97;;;15.10;99.90;;;;;;4218762;28;20040;-87
2023/07/05 05:03:05;;;;;;;11.00;4.90;;;15.10;99.90;;;;;;4216456;28;20050;-87
2023/07/05 05:05:07;;;;;;;7.30;4.25;;;15.10;99.90;;;;;;4221681;28;20408;-88
2023/07/05 05:07:14;;;;;;;7.90;3.88;;;15.10;99.90;;;;;;4221887;28;20055;-87
2023/07/05 05:09:17;;;;;;;9.32;4.60;;;15.10;99.90;;;;;;4218222;28;20045;-87
2023/07/05 05:11:17;;;;;;;9.45;4.22;;;15.20;99.90;;;;;;4220442;28;20051;-86
2023/07/05 05:13:19;;;;;;;7.40;4.00;;;15.20;99.90;;;;;;4215458;28;20460;-87
2023/07/05 05:15:22;;;;;;;7.68;3.95;;;15.20;99.90;;;;;;4218406;28;20156;-86
2023/07/05 05:17:22;;;;;;;10.43;4.20;;;15.20;99.90;;;;;;4218438;28;20054;-87
2023/07/05 05:19:24;;;;;;;5.75;3.55;;;15.10;99.90;;;;;;4209510;28;20032;-87
2023/07/05 05:21:26;;;;;;;4.25;2.60;;;15.10;99.90;;;;;;4201538;28;20044;-87
2023/07/05 05:23:27;;;;;;;7.15;2.88;;;15.10;99.90;;;;;;4203215;28;20044;-87
2023/07/05 05:25:28;;;;;;;7.50;2.47;;;15.00;99.90;;;;;;4202298;28;20495;-87
2023/07/05 05:27:30;;;;;;;6.63;2.83;;;15.00;99.90;;;;;;4202032;28;20072;-87
2023/07/05 05:29:34;;;;;;;7.22;2.83;;;15.00;99.90;;;;;;4202726;28;20115;-87
2023/07/05 05:31:35;;;;;;;7.80;2.80;;;15.00;99.90;;;;;;4212211;28;20472;-87
2023/07/05 05:33:36;;;;;;;5.38;2.58;;;15.00;99.90;;;;;;4220617;28;20036;-87
2023/07/05 05:35:38;;;;;;;7.40;2.72;;;14.90;99.90;;;;;;4217990;28;20040;-87
2023/07/05 05:37:39;;;;;;;4.80;2.60;;;14.90;99.90;;;;;;4220741;28;20051;-88
2023/07/05 05:39:40;;;;;;;4.57;2.78;;;14.90;99.90;;;;;;4217211;28;20586;-88
2023/07/05 05:41:46;;;;;;;5.85;2.53;;;14.80;99.90;;;;;;4218054;28;20082;-88
2023/07/05 05:43:50;;;;;;;5.80;3.03;;;14.90;99.90;;;;;;4221110;28;20120;-89
2023/07/05 05:45:51;;;;;;;8.68;2.97;;;14.90;99.90;;;;;;4219219;28;20043;-88
2023/07/05 05:47:52;;;;;;;4.72;2.40;;;14.80;99.90;;;;;;4219509;28;20040;-87
2023/07/05 05:49:53;;;;;;;4.80;3.10;;;14.80;99.90;;;;;;4218530;28;20044;-88
2023/07/05 05:51:53;;;;;;;4.93;2.50;;;14.80;99.90;;;;;;4218879;28;20404;-88
2023/07/05 05:53:54;;;;;;;7.13;2.67;;;14.80;99.90;;;;;;4218549;28;20067;-88
2023/07/05 05:55:58;;;;;;;6.13;2.60;;;14.80;99.90;;;;;;4219789;28;20098;-88
2023/07/05 05:57:58;;;;;;;4.40;2.67;;;14.90;99.90;;;;;;4218820;28;20044;-89
2023/07/05 05:59:59;;;;;;;7.40;3.03;;;15.00;99.90;;;;;;4218318;28;20062;-88
2023/07/05 06:02:00;;;;;;;5.18;2.33;;;15.00;99.90;;;;;;4235754;28;20047;-87
2023/07/05 06:04:06;;;;;;;3.97;2.60;;;15.00;99.90;;;;;;4218630;28;20044;-88
2023/07/05 06:06:07;;;;;;;8.68;3.38;;;15.00;99.90;;;;;;4220947;28;20047;-88
2023/07/05 06:08:08;;;;;;;4.60;2.13;;;15.00;99.90;;;;;;4219743;28;20075;-87
2023/07/05 06:10:10;;;;;;;5.53;2.45;;;15.00;99.90;;;;;;4220468;28;20071;-88
2023/07/05 06:12:12;;;;;;;8.40;2.65;;;15.00;99.90;;;;;;4220158;28;20036;-88
2023/07/05 06:14:13;;;;;;;4.88;2.55;;;15.10;99.90;;;;;;4223301;28;20071;-89
2023/07/05 06:16:15;;;;;;;7.30;2.30;;;14.90;99.90;;;;;;4204226;28;20051;-87
2023/07/05 06:18:16;;;;;;;5.18;2.45;;;15.30;99.90;;;;;;4238067;28;20123;-89
2023/07/05 06:20:17;;;;;;;6.13;2.30;;;15.20;99.90;;;;;;4223307;28;20051;-88
2023/07/05 06:22:17;;;;;;;4.65;2.50;;;15.30;99.90;;;;;;4230002;28;20039;-89
2023/07/05 06:24:18;;;;;;;4.78;2.30;;;15.50;99.90;;;;;;4228816;28;20075;-89
2023/07/05 06:26:20;;;;;;;7.97;2.50;;;15.40;99.90;;;;;;4218714;28;20131;-89
2023/07/05 06:28:23;;;;;;;5.45;2.38;;;14.20;99.90;;;;;;4220231;28;20047;-89
2023/07/05 06:30:29;;;;;;;8.13;2.22;;;15.30;99.90;;;;;;4221114;28;20051;-89
2023/07/05 06:32:32;;;;;;;5.18;2.47;;;15.30;99.90;;;;;;4220453;28;20044;-88
2023/07/05 06:34:33;;;;;;;6.47;1.95;;;15.20;99.90;;;;;;4220317;28;20044;-87
2023/07/05 06:36:33;;;;;;;6.03;2.08;;;15.20;99.90;;;;;;4219921;28;20040;-88
2023/07/05 06:38:35;;;;;;;4.45;2.30;;;15.10;99.90;;;;;;4219372;28;20040;-88
2023/07/05 06:40:36;;;;;;;3.88;2.40;;;15.50;99.90;;;;;;4235909;28;20531;-88
2023/07/05 06:42:37;;;;;;;4.60;1.90;;;15.20;99.90;;;;;;4221717;28;20162;-88
2023/07/05 06:44:37;;;;;;;6.90;2.00;;;15.20;99.90;;;;;;4222841;28;20520;-87
2023/07/05 06:46:38;;;;;;;6.28;2.80;;;15.20;99.90;;;;;;4227050;28;20103;-88
2023/07/05 06:48:39;;;;;;;4.05;2.47;;;15.30;99.90;;;;;;4227045;28;20047;-88
2023/07/05 06:50:41;;;;;;;4.32;2.03;;;15.30;99.90;;;;;;4223869;28;20051;-88
2023/07/05 06:52:42;;;;;;;4.22;2.20;;;15.40;99.90;;;;;;4221907;28;20039;-88
2023/07/05 06:54:44;;;;;;;5.88;2.22;;;15.40;99.90;;;;;;4220995;28;20480;-88
2023/07/05 06:56:45;;;;;;;4.50;2.20;;;15.60;99.90;;;;;;4219626;28;20035;-88
2023/07/05 06:58:47;;;;;;;7.90;2.10;;;15.30;99.90;;;;;;4219381;28;20480;-89
2023/07/05 07:00:49;;;;;;;5.22;2.30;;;15.30;99.90;;;;;;4221099;28;20500;-88
2023/07/05 07:02:50;;;;;;;3.92;1.92;;;15.30;99.90;;;;;;4220445;28;20471;-88
2023/07/05 07:04:51;;;;;;;3.70;2.10;;;15.30;99.90;;;;;;4219971;28;20052;-88
2023/07/05 07:06:51;;;;;;;3.25;2.00;;;15.40;99.90;;;;;;4219735;28;20044;-88
2023/07/05 07:08:52;;;;;;;5.82;2.00;;;15.20;99.90;;;;;;4220073;28;20068;-88
2023/07/05 07:10:53;;;;;;;3.33;1.85;;;15.10;99.90;;;;;;4220457;28;20047;-88
2023/07/05 07:12:54;;;;;;;6.30;1.75;;;15.10;99.90;;;;;;4223688;28;20105;-88
2023/07/05 07:14:55;;;;;;;7.53;2.28;;;15.00;99.90;;;;;;4222855;28;20058;-88
2023/07/05 07:17:02;;;;;;;3.85;2.30;;;15.30;99.90;;;;;;4220759;28;20413;-88
2023/07/05 07:19:02;;;;;;;3.78;1.85;;;15.60;99.90;;;;;;4222622;28;20047;-89
2023/07/05 07:21:06;;;;;;;3.08;1.65;;;15.70;99.90;;;;;;4223427;28;20044;-89
2023/07/05 07:23:07;;;;;;;5.20;1.77;;;15.80;99.90;;;;;;4221848;28;20186;-88
2023/07/05 07:25:08;;;;;;;4.03;1.92;;;16.00;99.90;;;;;;4221966;28;20476;-89
2023/07/05 07:27:09;;;;;;;5.80;2.72;;;16.10;99.90;;;;;;4224568;28;20035;-89
2023/07/05 07:29:11;;;;;;;7.53;1.80;;;15.20;99.90;;;;;;4223901;28;20123;-89
2023/07/05 07:31:29;;;;;;;4.00;1.90;;;16.20;99.90;;;;;;4223153;28;20036;-89
2023/07/05 07:33:30;;;;;;;6.05;2.00;;;16.20;99.90;;;;;;4224911;28;20044;-89
2023/07/05 07:35:31;;;;;;;3.33;1.67;;;16.20;99.90;;;;;;4223365;28;20044;-88
2023/07/05 07:37:33;;;;;;;6.03;2.00;;;16.10;99.90;;;;;;4222784;28;20455;-89
2023/07/05 07:39:34;;;;;;;8.15;1.98;;;15.90;99.90;;;;;;4226573;28;20030;-88
2023/07/05 07:41:36;;;;;;;4.72;1.70;;;15.60;99.90;;;;;;4222521;28;20071;-88
2023/07/05 07:43:38;;;;;;;5.32;1.75;;;15.10;99.90;;;;;;4226751;28;20040;-87
2023/07/05 07:45:39;;;;;;;4.75;1.45;;;15.30;99.90;;;;;;4221479;28;20171;-87
2023/07/05 07:47:39;;;;;;;4.32;1.70;;;14.10;99.90;;;;;;4224779;28;20123;-87
2023/07/05 07:49:41;;;;;;;3.78;1.55;;;15.40;99.90;;;;;;4225842;28;20072;-88
2023/07/05 07:51:45;;;;;;;5.20;1.90;;;15.50;99.90;;;;;;4227261;28;20136;-88
2023/07/05 07:53:46;;;;;;;5.63;1.50;;;15.50;99.90;;;;;;4225364;28;20464;-88
2023/07/05 07:55:47;;;;;;;6.30;1.70;;;15.60;99.90;;;;;;4221889;28;20052;-88
2023/07/05 07:57:47;;;;;;;3.03;1.90;;;15.50;99.90;;;;;;4222895;28;20044;-87
2023/07/05 07:59:51;;;;;;;2.65;1.60;;;15.30;99.90;;;;;;4221617;28;20506;-86
2023/07/05 08:01:51;;;;;;;4.32;1.48;;;15.30;99.90;;;;;;4223882;28;20119;-88
2023/07/05 08:03:53;;;;;;;4.80;1.70;;;14.80;99.90;;;;;;4221838;28;20040;-88
2023/07/05 08:05:54;;;;;;;1.42;1.02;;;14.60;99.90;;;;;;4220372;28;20048;-88
2023/07/05 08:07:55;;;;;;;3.35;1.77;;;14.30;99.90;;;;;;4221883;28;20047;-87
2023/07/05 08:09:55;;;;;;;2.58;1.50;;;14.70;99.90;;;;;;4221674;28;20040;-87
2023/07/05 08:11:57;;;;;;;2.33;1.35;;;13.90;99.90;;;;;;4221690;28;20066;-87
2023/07/05 08:13:59;;;;;;;2.97;1.10;;;13.80;99.90;;;;;;4221419;28;20096;-86
2023/07/05 08:16:00;;;;;;;1.77;0.88;;;13.70;99.90;;;;;;4222705;28;20048;-88
2023/07/05 08:18:01;;;;;;;2.03;0.50;;;13.60;99.90;;;;;;4227456;28;20105;-87
2023/07/05 08:20:03;;;;;;;1.15;0.45;;;13.50;99.90;;;;;;4220679;28;20450;-87
2023/07/05 08:22:06;;;;;;;1.50;0.70;;;13.30;99.90;;;;;;4219518;28;20044;-87
2023/07/05 08:24:07;;;;;;;1.38;0.70;;;13.20;99.90;;;;;;4219826;28;20477;-87
2023/07/05 08:26:11;;;;;;;2.28;1.40;;;13.10;99.90;;;;;;4219937;28;20042;-88
2023/07/05 08:28:13;;;;;;;1.67;0.80;;;13.10;99.90;;;;;;4219042;28;20101;-87
2023/07/05 08:30:13;;;;;;;4.25;0.55;;;13.10;99.90;;;;;;4219039;28;20048;-87
2023/07/05 08:32:14;;;;;;;3.05;1.00;;;13.40;99.90;;;;;;4216910;28;20071;-86
2023/07/05 08:34:16;;;;;;;1.73;0.35;;;13.00;99.90;;;;;;4217986;28;20334;-86
2023/07/05 08:36:32;;;;;;;3.65;0.65;;;12.80;99.90;;;;;;4217948;28;20051;-86
2023/07/05 08:38:34;;;;;;;1.98;0.50;;;12.40;99.90;;;;;;4218543;28;20055;-88
2023/07/05 08:40:40;;;;;;;2.33;0.68;;;12.50;99.90;;;;;;4219235;28;20473;-87
2023/07/05 08:43:08;;;;;;;1.48;0.50;;;12.30;99.90;;;;;;4234081;28;20080;-88
2023/07/05 08:45:18;;;;;;;0.90;0.57;;;12.30;99.90;;;;;;4234782;28;20059;-87
2023/07/05 08:47:28;;;;;;;0.50;0.30;;;12.10;99.90;;;;;;4219157;28;20135;-87
2023/07/05 08:49:36;;;;;;;0.88;0.50;;;12.20;99.90;;;;;;4220386;28;20078;-88
2023/07/05 08:51:42;;;;;;;1.20;0.70;;;12.20;99.90;;;;;;4219524;28;20131;-87
2023/07/05 08:53:51;;;;;;;0.85;0.52;;;12.20;99.90;;;;;;4221320;28;20044;-87
2023/07/05 08:56:03;;;;;;;1.23;0.52;;;12.10;99.90;;;;;;4220475;28;20067;-87
2023/07/05 08:58:07;;;;;;;1.05;0.50;;;12.10;99.90;;;;;;4235552;28;20534;-87
2023/07/05 09:00:14;;;;;;;3.03;0.93;;;12.00;99.90;;;;;;4222722;28;20044;-87
2023/07/05 09:02:19;;;;;;;1.25;0.28;;;12.10;99.90;;;;;;4223148;28;20040;-87
2023/07/05 09:04:25;;;;;;;0.68;0.50;;;12.00;99.90;;;;;;4234534;28;20128;-87
2023/07/05 09:06:32;;;;;;;0.65;0.43;;;12.20;99.90;;;;;;4218802;28;20048;-87
2023/07/05 09:08:42;;;;;;;2.83;0.93;;;12.00;99.90;;;;;;4218229;28;20135;-88
2023/07/05 09:10:55;;;;;;;1.92;0.43;;;12.00;99.90;;;;;;4219082;28;20044;-88
2023/07/05 09:13:23;;;;;;;0.43;0.30;;;12.10;99.90;;;;;;4219648;28;20438;-88
2023/07/05 09:15:32;;;;;;;0.80;0.40;;;11.90;99.90;;;;;;4218765;28;20427;-88
2023/07/05 09:17:49;;;;;;;2.97;0.60;;;11.80;99.90;;;;;;4218629;28;20054;-87
2023/07/05 09:20:10;;;;;;;0.70;0.40;;;11.80;99.90;;;;;;4216857;28;20048;-87
2023/07/05 09:22:17;;;;;;;2.22;0.63;;;11.80;99.90;;;;;;4234212;28;20043;-88
2023/07/05 09:24:24;;;;;;;5.57;0.75;;;11.80;99.90;;;;;;4218901;28;20105;-87
2023/07/05 09:26:36;;;;;;;4.00;0.88;;;11.40;99.90;;;;;;4217029;28;20048;-87
2023/07/05 09:28:43;;;;;;;4.53;1.52;;;;;;;;;;4217434;28;20048;-88
2023/07/05 09:30:44;;;;;;;4.15;0.77;;;11.90;99.90;;;;;;4216733;28;20105;-88
2023/07/05 09:32:51;;;;;;;8.88;1.15;;;11.90;99.90;;;;;;4217335;28;20044;-87
2023/07/05 09:34:58;;;;;;;4.35;0.80;;;12.00;99.90;;;;;;4217550;28;20055;-87
2023/07/05 09:37:11;;;;;;;7.03;0.98;;;12.50;99.90;;;;;;4217576;28;20063;-88
2023/07/05 09:39:36;;;;;;;0.98;0.50;;;12.10;99.90;;;;;;4217321;28;20532;-87
2023/07/05 09:41:47;;;;;;;2.40;0.70;;;12.30;99.90;;;;;;4233868;28;20059;-87
2023/07/05 09:43:48;;;;;;;5.22;0.80;;;12.30;99.90;;;;;;4218412;28;20051;-87
2023/07/05 09:45:49;;;;;;;4.25;0.95;;;12.50;99.90;;;;;;4216112;28;20060;-88
2023/07/05 09:48:00;;;;;;;5.10;0.65;;;12.50;99.90;;;;;;4219278;28;20492;-88
2023/07/05 09:50:01;;;;;;;1.65;0.40;;;12.50;99.90;;;;;;4219003;28;20055;-87
2023/07/05 09:52:09;;;;;;;4.13;0.88;;;12.70;99.90;;;;;;4218846;28;20036;-87
2023/07/05 09:54:23;;;;;;;2.35;0.30;;;12.90;99.90;;;;;;4235610;28;20048;-88
2023/07/05 09:56:27;;;;;;;1.55;0.50;;;13.00;99.90;;;;;;4217103;28;20523;-87
2023/07/05 09:58:28;;;;;;;2.85;0.57;;;13.00;99.90;;;;;;4218279;28;20044;-88
2023/07/05 10:00:34;;;;;;;4.43;0.40;;;13.10;99.90;;;;;;4218374;28;20526;-89
2023/07/05 10:02:39;;;;;;;0.98;0.20;;;13.20;99.90;;;;;;4219019;28;20039;-87
2023/07/05 10:04:55;;;;;;;3.97;0.20;;;13.30;99.90;;;;;;4219575;28;20036;-88
2023/07/05 10:07:02;;;;;;;1.88;0.20;;;13.30;99.90;;;;;;4219389;28;20048;-88
2023/07/05 10:09:16;;;;;;;0.45;0.30;;;13.40;99.90;;;;;;4218126;28;20563;-87
2023/07/05 10:11:34;;;;;;;0.20;0.20;;;13.50;99.90;;;;;;4221335;28;20040;-88
2023/07/05 10:13:36;;;;;;;3.55;0.68;;;13.40;99.90;;;;;;4225679;28;20059;-88
2023/07/05 10:15:43;;;;;;;3.85;0.80;;;13.50;99.90;;;;;;4218774;28;20032;-88
2023/07/05 10:17:54;;;;;;;2.60;0.20;;;13.60;99.90;;;;;;4223665;28;20043;-87
2023/07/05 10:19:57;;;;;;;3.50;0.45;;;13.50;99.90;;;;;;4223103;28;20050;-89
2023/07/05 10:22:06;;;;;;;1.05;0.28;;;13.70;99.90;;;;;;4219908;28;20040;-89
2023/07/05 10:24:10;;;;;;;2.92;0.20;;;13.80;99.90;;;;;;4221488;28;20067;-90
2023/07/05 10:26:11;;;;;;;1.15;0.15;;;13.90;99.90;;;;;;4220871;28;20125;-89
2023/07/05 10:28:20;;;;;;;0.73;0.20;;;14.00;99.90;;;;;;4225104;28;20048;-89
2023/07/05 10:30:22;;;;;;;4.75;0.52;;;14.20;99.90;;;;;;4221990;28;20040;-89
2023/07/05 10:32:22;;;;;;;2.70;0.47;;;14.40;99.90;;;;;;4220111;28;20035;-89
2023/07/05 10:34:25;;;;;;;1.00;0.10;;;14.50;99.90;;;;;;4221110;28;20052;-89
2023/07/05 10:36:27;;;;;;;1.60;0.40;;;14.70;99.90;;;;;;4218780;28;20043;-89
2023/07/05 10:38:33;;;;;;;1.80;0.20;;;14.70;99.90;;;;;;4219603;28;20039;-89
2023/07/05 10:40:34;;;;;;;1.05;0.22;;;14.40;99.90;;;;;;4220205;28;20511;-89
2023/07/05 10:42:39;;;;;;;2.75;0.20;;;14.60;99.90;;;;;;4220363;28;20044;-90